createdAt,value
2023-01-11T00:01:14.082Z,5.10
2023-01-11T00:03:42.728Z,6.33
2023-01-11T00:06:12.385Z,6.33
2023-01-11T00:08:41.123Z,5.70
2023-01-11T00:11:16.651Z,5.97
2023-01-11T00:13:46.169Z,4.90
2023-01-11T00:16:15.138Z,3.53
2023-01-11T00:18:43.965Z,4.73
2023-01-11T00:21:12.714Z,3.50
2023-01-11T00:23:41.419Z,2.07
2023-01-11T00:26:13.238Z,3.30
2023-01-11T00:28:41.936Z,2.53
2023-01-11T00:31:10.664Z,2.27
2023-01-11T00:33:39.325Z,3.03
2023-01-11T00:36:08.500Z,3.07
2023-01-11T00:38:50.750Z,3.10
2023-01-11T00:41:39.163Z,2.60
2023-01-11T00:44:26.348Z,3.93
2023-01-11T00:47:12.897Z,3.80
2023-01-11T00:49:41.641Z,3.77
2023-01-11T00:52:10.932Z,4.13
2023-01-11T00:54:41.636Z,4.77
2023-01-11T00:57:10.348Z,5.10
2023-01-11T00:59:40.441Z,6.00
2023-01-11T01:02:11.182Z,5.40
2023-01-11T01:04:40.770Z,7.20
2023-01-11T01:07:09.814Z,6.47
2023-01-11T01:09:38.937Z,6.20
2023-01-11T01:12:09.166Z,7.80
2023-01-11T01:14:38.560Z,4.87
2023-01-11T01:17:09.608Z,5.30
2023-01-11T01:19:40.075Z,6.33
2023-01-11T01:22:09.161Z,6.20
2023-01-11T01:24:37.996Z,6.47
2023-01-11T01:27:06.656Z,6.50
2023-01-11T01:29:35.261Z,8.23
2023-01-11T01:32:05.370Z,6.40
2023-01-11T01:34:35.671Z,7.93
2023-01-11T01:37:07.253Z,7.53
2023-01-11T01:39:36.314Z,7.33
2023-01-11T01:42:06.407Z,8.47
2023-01-11T01:45:01.240Z,7.40
2023-01-11T01:47:41.466Z,8.43
2023-01-11T01:50:13.309Z,8.37
2023-01-11T01:52:45.184Z,7.27
2023-01-11T01:55:16.756Z,5.93
2023-01-11T01:57:46.508Z,7.60
2023-01-11T02:00:15.581Z,7.50
2023-01-11T02:02:46.217Z,7.93
2023-01-11T02:05:17.347Z,8.40
2023-01-11T02:07:47.652Z,6.73
2023-01-11T02:10:21.296Z,7.10
2023-01-11T02:13:02.887Z,5.83
2023-01-11T02:15:32.130Z,6.97
2023-01-11T02:18:00.736Z,9.47
2023-01-11T02:20:37.667Z,6.97
2023-01-11T02:23:27.296Z,8.93
2023-01-11T02:26:18.664Z,6.30
2023-01-11T02:28:56.737Z,8.60
2023-01-11T02:31:46.799Z,8.90
2023-01-11T02:34:50.097Z,9.23
2023-01-11T02:37:21.819Z,8.33
2023-01-11T02:40:01.956Z,10.60
2023-01-11T02:42:54.205Z,9.20
2023-01-11T02:45:40.707Z,9.60
2023-01-11T02:48:37.582Z,9.23
2023-01-11T02:51:24.518Z,8.97
2023-01-11T02:54:02.130Z,10.57
2023-01-11T02:56:34.038Z,10.60
2023-01-11T02:59:07.194Z,7.83
2023-01-11T03:01:47.044Z,9.43
2023-01-11T03:04:30.958Z,8.27
2023-01-11T03:07:19.090Z,11.07
2023-01-11T03:10:06.863Z,10.33
2023-01-11T03:12:55.223Z,9.23
2023-01-11T03:16:00.087Z,9.67
2023-01-11T03:19:02.435Z,8.97
2023-01-11T03:21:36.830Z,8.90
2023-01-11T03:24:43.445Z,9.93
2023-01-11T03:27:24.006Z,8.00
2023-01-11T03:30:14.147Z,7.73
2023-01-11T03:32:54.808Z,7.97
2023-01-11T03:35:35.525Z,10.53
2023-01-11T03:38:10.250Z,9.30
2023-01-11T03:40:59.860Z,8.43
2023-01-11T03:43:30.788Z,8.47
2023-01-11T03:46:11.806Z,9.47
2023-01-11T03:48:49.322Z,9.50
2023-01-11T03:51:20.989Z,11.20
2023-01-11T03:53:52.235Z,8.97
2023-01-11T03:56:23.865Z,8.83
2023-01-11T03:58:52.452Z,8.07
2023-01-11T04:01:21.237Z,8.13
2023-01-11T04:03:49.871Z,8.40
2023-01-11T04:06:20.493Z,9.37
2023-01-11T04:08:49.191Z,9.93
2023-01-11T04:11:17.754Z,10.40
2023-01-11T04:13:46.307Z,10.50
2023-01-11T04:16:14.960Z,9.73
2023-01-11T04:18:46.902Z,9.63
2023-01-11T04:21:15.552Z,10.33
2023-01-11T04:23:44.168Z,8.93
2023-01-11T04:26:14.252Z,9.77
2023-01-11T04:28:47.430Z,11.47
2023-01-11T04:31:16.155Z,8.90
2023-01-11T04:33:44.924Z,9.60
2023-01-11T04:36:14.800Z,10.77
2023-01-11T04:38:43.417Z,9.37
2023-01-11T04:41:29.948Z,9.67
2023-01-11T04:43:58.637Z,13.90
2023-01-11T04:46:27.374Z,8.00
2023-01-11T04:48:56.530Z,11.13
2023-01-11T04:51:25.393Z,6.77
2023-01-11T04:53:54.973Z,6.40
2023-01-11T04:56:31.178Z,4.97
2023-01-11T04:59:04.719Z,4.13
2023-01-11T05:01:42.842Z,5.70
2023-01-11T05:04:14.991Z,5.03
2023-01-11T05:06:47.099Z,5.73
2023-01-11T05:09:17.898Z,6.73
2023-01-11T05:11:46.655Z,5.27
2023-01-11T05:14:17.536Z,5.37
2023-01-11T05:16:46.286Z,5.83
2023-01-11T05:19:15.188Z,4.23
2023-01-11T05:21:43.806Z,6.97
2023-01-11T05:24:20.173Z,3.90
2023-01-11T05:30:12.123Z,4.03
2023-01-11T05:32:56.437Z,3.90
2023-01-11T05:35:54.534Z,4.03
2023-01-11T05:38:17.350Z,5.40
2023-01-11T05:41:07.858Z,5.53
2023-01-11T05:43:56.346Z,4.77
2023-01-11T05:46:26.018Z,3.90
2023-01-11T05:48:56.592Z,4.43
2023-01-11T05:51:25.259Z,3.67
2023-01-11T05:53:56.903Z,4.37
2023-01-11T05:56:28.709Z,4.07
2023-01-11T05:58:58.099Z,3.83
2023-01-11T06:01:29.852Z,13.37
2023-01-11T06:03:58.497Z,4.00
2023-01-11T06:06:27.512Z,3.90
2023-01-11T06:08:56.345Z,4.23
2023-01-11T06:11:28.214Z,8.77
2023-01-11T06:13:58.972Z,6.33
2023-01-11T06:16:27.480Z,6.60
2023-01-11T06:18:58.029Z,9.00
2023-01-11T06:21:26.790Z,5.23
2023-01-11T06:23:55.498Z,3.10
2023-01-11T06:26:24.586Z,5.63
2023-01-11T06:28:53.420Z,7.03
2023-01-11T06:31:22.256Z,3.70
2023-01-11T06:33:50.950Z,3.33
2023-01-11T06:36:19.708Z,5.80
2023-01-11T06:38:48.275Z,3.87
2023-01-11T06:41:17.091Z,3.33
2023-01-11T06:43:49.470Z,4.33
2023-01-11T06:46:23.550Z,5.67
2023-01-11T06:48:52.144Z,6.60
2023-01-11T06:51:20.823Z,6.83
2023-01-11T06:53:50.009Z,9.87
2023-01-11T06:56:23.624Z,6.23
2023-01-11T06:58:52.985Z,6.23
2023-01-11T07:01:22.254Z,10.00
2023-01-11T07:03:50.994Z,7.70
2023-01-11T07:06:19.698Z,6.03
2023-01-11T07:08:48.559Z,6.77
2023-01-11T07:11:20.851Z,8.73
2023-01-11T07:13:54.946Z,5.77
2023-01-11T07:16:23.789Z,6.30
2023-01-11T07:18:52.449Z,8.23
2023-01-11T07:21:21.134Z,5.37
2023-01-11T07:23:49.758Z,5.93
2023-01-11T07:26:19.956Z,4.17
2023-01-11T07:28:55.646Z,6.23
2023-01-11T07:31:29.237Z,6.20
2023-01-11T07:33:59.952Z,5.50
2023-01-11T07:36:37.853Z,6.80
2023-01-11T07:42:12.025Z,4.37
2023-01-11T07:44:45.029Z,5.27
2023-01-11T07:50:17.262Z,4.87
2023-01-11T07:52:56.928Z,3.97
2023-01-11T07:55:29.385Z,4.07
2023-01-11T07:58:01.787Z,3.53
2023-01-11T08:00:35.200Z,5.07
2023-01-11T08:03:05.605Z,2.77
2023-01-11T08:05:35.203Z,4.73
2023-01-11T08:08:11.723Z,3.57
2023-01-11T08:10:43.570Z,3.63
2023-01-11T08:13:34.875Z,4.37
2023-01-11T08:16:05.084Z,5.07
2023-01-11T08:18:33.858Z,3.63
2023-01-11T08:21:02.589Z,3.27
2023-01-11T08:23:34.128Z,3.57
2023-01-11T08:26:02.916Z,4.60
2023-01-11T08:28:31.531Z,4.30
2023-01-11T08:31:00.273Z,4.20
2023-01-11T08:33:30.273Z,5.00
2023-01-11T08:35:58.975Z,6.70
2023-01-11T08:38:30.381Z,4.57
2023-01-11T08:40:59.253Z,4.20
2023-01-11T08:43:36.092Z,3.67
2023-01-11T08:46:07.010Z,5.17
2023-01-11T08:48:42.083Z,4.77
2023-01-11T08:51:22.800Z,7.43
2023-01-11T08:53:53.671Z,3.27
2023-01-11T08:56:24.843Z,7.33
2023-01-11T08:58:55.630Z,5.77
2023-01-11T09:01:24.361Z,3.07
2023-01-11T09:04:19.256Z,3.83
2023-01-11T09:06:36.836Z,3.23
2023-01-11T09:09:08.666Z,3.63
2023-01-11T09:11:58.435Z,2.93
2023-01-11T09:14:28.981Z,4.47
2023-01-11T09:16:58.234Z,4.80
2023-01-11T09:19:27.056Z,8.80
2023-01-11T09:21:57.544Z,5.33
2023-01-11T09:24:26.405Z,5.83
2023-01-11T09:26:55.284Z,5.53
2023-01-11T09:29:23.971Z,6.70
2023-01-11T09:31:55.344Z,6.43
2023-01-11T09:34:34.408Z,17.70
2023-01-11T09:37:08.628Z,13.23
2023-01-11T09:39:50.491Z,4.87
2023-01-11T09:42:18.845Z,4.83
2023-01-11T09:44:51.131Z,7.33
2023-01-11T09:47:39.508Z,7.17
2023-01-11T09:50:21.000Z,1.57
2023-01-11T09:53:11.362Z,4.90
2023-01-11T09:55:53.086Z,2.30
2023-01-11T10:01:56.302Z,2.73
2023-01-11T10:04:41.698Z,9.63
2023-01-11T10:28:21.253Z,3.07
2023-01-11T10:31:09.689Z,5.17
2023-01-11T10:37:24.764Z,5.87
2023-01-11T10:40:32.788Z,3.20
2023-01-11T10:43:30.390Z,3.23
2023-01-11T10:46:08.773Z,4.03
2023-01-11T10:48:48.192Z,4.73
2023-01-11T10:51:41.113Z,7.90
2023-01-11T10:54:35.267Z,8.37
2023-01-11T10:57:32.252Z,3.73
2023-01-11T11:00:05.221Z,6.77
2023-01-11T11:02:56.057Z,4.80
2023-01-11T11:05:30.691Z,4.30
2023-01-11T11:08:02.444Z,4.07
2023-01-11T11:10:39.812Z,4.43
2023-01-11T11:13:49.412Z,5.33
2023-01-11T11:16:27.005Z,5.40
2023-01-11T11:19:02.268Z,7.97
2023-01-11T11:21:36.940Z,5.33
2023-01-11T11:24:31.850Z,3.43
2023-01-11T11:27:06.745Z,5.03
2023-01-11T11:29:38.602Z,5.93
2023-01-11T11:32:30.977Z,4.60
2023-01-11T11:35:03.585Z,8.33
2023-01-11T11:37:46.820Z,5.53
2023-01-11T11:47:46.999Z,4.53
2023-01-11T11:53:41.220Z,6.20
2023-01-11T11:59:54.948Z,5.47
2023-01-11T12:02:32.869Z,4.77
2023-01-11T12:05:07.531Z,2.87
2023-01-11T12:07:55.030Z,3.17
2023-01-11T12:10:26.382Z,7.80
2023-01-11T12:13:04.623Z,4.50
2023-01-11T12:15:37.430Z,4.80
2023-01-11T12:21:52.945Z,2.93
2023-01-11T12:27:27.186Z,3.70
2023-01-11T12:30:29.927Z,4.37
2023-01-11T12:33:19.563Z,4.87
2023-01-11T12:36:03.403Z,8.53
2023-01-11T12:42:07.860Z,5.47
2023-01-11T12:44:39.683Z,7.77
2023-01-11T12:47:21.110Z,9.37
2023-01-11T12:50:15.603Z,6.37
2023-01-11T12:53:16.396Z,6.97
2023-01-11T12:55:59.601Z,7.27
2023-01-11T12:58:59.367Z,9.63
2023-01-11T13:01:56.940Z,6.37
2023-01-11T13:04:45.485Z,7.83
2023-01-11T13:07:21.786Z,4.97
2023-01-11T13:09:59.180Z,5.73
2023-01-11T13:12:36.727Z,6.57
2023-01-11T13:15:08.449Z,5.20
2023-01-11T13:17:40.092Z,6.03
2023-01-11T13:20:34.213Z,7.70
2023-01-11T13:23:07.456Z,12.53
2023-01-11T13:25:39.086Z,5.83
2023-01-11T13:28:24.407Z,6.10
2023-01-11T13:30:53.327Z,16.63
2023-01-11T13:33:25.374Z,7.03
2023-01-11T13:36:09.723Z,5.60
2023-01-11T13:38:47.749Z,4.70
2023-01-11T13:41:25.220Z,7.90
2023-01-11T13:44:02.562Z,10.53
2023-01-11T13:46:37.196Z,4.40
2023-01-11T13:49:24.003Z,10.63
2023-01-11T13:51:55.621Z,15.13
2023-01-11T13:54:29.830Z,4.90
2023-01-11T13:57:01.590Z,6.27
2023-01-11T13:59:36.227Z,9.50
2023-01-11T14:02:07.808Z,7.67
2023-01-11T14:04:50.280Z,4.53
2023-01-11T14:07:24.916Z,4.70
2023-01-11T14:10:02.259Z,8.00
2023-01-11T14:12:54.941Z,7.87
2023-01-11T14:15:37.128Z,8.53
2023-01-11T14:18:28.332Z,7.20
2023-01-11T14:21:09.169Z,11.13
2023-01-11T14:23:52.613Z,4.77
2023-01-11T14:26:40.599Z,8.10
2023-01-11T14:29:35.416Z,6.83
2023-01-11T14:32:22.304Z,9.70
2023-01-11T14:34:54.663Z,6.57
2023-01-11T14:37:32.246Z,11.77
2023-01-11T14:40:29.568Z,9.10
2023-01-11T14:43:05.828Z,5.97
2023-01-11T14:45:52.670Z,9.73
2023-01-11T14:48:29.725Z,7.00
2023-01-11T14:51:18.149Z,7.30
2023-01-11T14:54:09.828Z,8.30
2023-01-11T14:56:47.437Z,8.73
2023-01-11T14:59:34.279Z,7.33
2023-01-11T15:02:08.630Z,4.77
2023-01-11T15:04:55.691Z,4.57
2023-01-11T15:07:27.627Z,6.97
2023-01-11T15:09:58.001Z,4.70
2023-01-11T15:12:42.617Z,8.17
2023-01-11T15:15:27.247Z,9.27
2023-01-11T15:18:15.535Z,10.23
2023-01-11T15:20:53.144Z,9.67
2023-01-11T15:23:22.864Z,7.10
2023-01-11T15:25:54.612Z,6.93
2023-01-11T15:28:39.266Z,9.60
2023-01-11T15:31:08.228Z,11.33
2023-01-11T15:33:54.846Z,11.37
2023-01-11T15:36:25.497Z,8.40
2023-01-11T15:39:55.079Z,9.57
2023-01-11T15:46:13.649Z,12.37
2023-01-11T15:59:35.472Z,13.97
2023-01-11T17:57:22.595Z,14.43
2023-01-11T17:59:51.118Z,13.30
2023-01-11T18:02:20.161Z,12.47
2023-01-11T18:04:52.040Z,11.20
2023-01-11T18:07:21.261Z,12.53
2023-01-11T18:09:52.922Z,11.50
2023-01-11T18:12:24.246Z,14.80
2023-01-11T18:18:10.057Z,13.77
2023-01-11T18:20:42.077Z,15.27
2023-01-11T20:14:47.636Z,15.00
2023-01-11T20:14:57.806Z,18.97
2023-01-11T20:17:19.715Z,12.40
2023-01-11T20:19:55.984Z,15.63
2023-01-11T20:22:25.966Z,14.43
2023-01-11T20:24:57.042Z,14.77
2023-01-11T20:27:26.075Z,13.97
2023-01-11T20:30:00.398Z,18.10
2023-01-11T20:32:45.974Z,13.30
2023-01-11T20:35:17.581Z,14.07
2023-01-11T20:37:50.452Z,16.73
2023-01-11T20:40:23.704Z,11.67
2023-01-11T20:43:03.274Z,16.97
2023-01-11T21:02:19.454Z,26.07
2023-01-11T21:06:04.170Z,14.57
2023-01-11T21:10:56.949Z,11.20
2023-01-11T21:13:31.809Z,16.20
2023-01-11T21:16:22.721Z,15.20
2023-01-11T21:18:56.484Z,11.40
2023-01-11T21:21:26.267Z,12.77
2023-01-11T21:23:57.003Z,13.13
2023-01-11T21:26:27.555Z,14.70
2023-01-11T21:28:59.781Z,14.07
2023-01-11T21:31:30.794Z,12.73
2023-01-11T21:34:00.485Z,14.73
2023-01-11T21:36:31.348Z,12.30
2023-01-11T21:39:02.567Z,14.13
2023-01-11T21:41:51.031Z,16.10
2023-01-11T21:44:21.225Z,13.63
2023-01-11T21:46:50.761Z,13.40
2023-01-11T21:49:21.343Z,12.87
2023-01-11T21:51:49.891Z,16.63
2023-01-11T21:54:19.286Z,16.00
2023-01-11T21:56:49.161Z,23.87
2023-01-11T21:59:18.765Z,17.73
2023-01-11T22:01:49.456Z,37.93
2023-01-11T22:04:21.056Z,17.37
2023-01-11T22:06:55.292Z,16.50
2023-01-11T22:09:25.957Z,15.13
2023-01-11T22:11:55.503Z,17.73
2023-01-11T22:14:24.468Z,19.63
2023-01-11T22:16:53.765Z,16.40
2023-01-11T22:19:22.664Z,15.30
2023-01-11T22:21:51.315Z,14.67
2023-01-11T22:24:20.993Z,13.83
2023-01-11T22:26:49.701Z,13.90
2023-01-11T22:29:20.003Z,16.50
2023-01-11T22:31:55.505Z,14.10
2023-01-11T22:34:24.676Z,12.13
2023-01-11T22:36:54.386Z,13.90
2023-01-11T22:39:24.178Z,15.47
2023-01-11T22:41:53.041Z,13.07
2023-01-11T22:44:21.748Z,13.07
2023-01-11T22:46:50.600Z,13.27
2023-01-11T22:49:19.798Z,15.13
2023-01-11T22:51:48.601Z,11.60
2023-01-11T22:54:17.392Z,12.30
2023-01-11T22:56:46.189Z,15.00
2023-01-11T22:59:14.866Z,12.07
2023-01-11T23:01:44.180Z,11.97
2023-01-11T23:04:14.560Z,11.30
2023-01-11T23:06:44.210Z,13.83
2023-01-11T23:09:17.036Z,13.60
2023-01-11T23:12:04.394Z,11.47
2023-01-11T23:14:33.953Z,11.63
2023-01-11T23:17:06.768Z,10.83
2023-01-11T23:19:38.714Z,12.33
2023-01-11T23:22:17.186Z,13.77
2023-01-11T23:24:45.899Z,14.33
2023-01-11T23:27:14.830Z,12.43
2023-01-11T23:29:43.657Z,14.27
2023-01-11T23:32:12.623Z,12.83
2023-01-11T23:34:41.250Z,12.57
2023-01-11T23:37:10.030Z,13.27
2023-01-11T23:39:38.690Z,10.87
2023-01-11T23:42:25.255Z,11.97
2023-01-11T23:44:57.993Z,13.43
2023-01-11T23:47:29.109Z,10.03
2023-01-11T23:50:01.263Z,8.40
2023-01-11T23:52:32.614Z,10.23
2023-01-11T23:55:01.599Z,10.73
2023-01-11T23:57:30.310Z,9.00
2023-01-11T23:59:59.037Z,7.90
